createdAt,value
2017-11-04T00:01:00.914Z,30.47
2017-11-04T00:03:29.833Z,31.03
2017-11-04T00:05:57.953Z,30.17
2017-11-04T00:08:26.098Z,29.53
2017-11-04T00:10:54.249Z,23.17
2017-11-04T00:13:23.237Z,19.37
2017-11-04T00:15:52.152Z,21.30
2017-11-04T00:18:20.312Z,22.00
2017-11-04T00:20:48.418Z,26.37
2017-11-04T00:23:16.593Z,25.43
2017-11-04T00:25:44.718Z,24.47
2017-11-04T00:28:12.836Z,21.70
2017-11-04T00:30:40.986Z,22.70
2017-11-04T00:33:09.112Z,21.93
2017-11-04T00:35:38.030Z,23.27
2017-11-04T00:38:06.147Z,23.10
2017-11-04T00:40:34.292Z,24.63
2017-11-04T00:43:02.434Z,23.60
2017-11-04T00:45:30.569Z,24.30
2017-11-04T00:47:58.689Z,24.87
2017-11-04T00:50:27.615Z,28.70
2017-11-04T00:52:55.743Z,28.73
2017-11-04T00:55:23.893Z,26.87
2017-11-04T00:57:52.785Z,27.83
2017-11-04T01:00:23.129Z,27.47
2017-11-04T01:02:51.265Z,29.37
2017-11-04T01:05:20.168Z,28.40
2017-11-04T01:07:49.057Z,27.77
2017-11-04T01:10:17.968Z,27.77
2017-11-04T01:12:46.137Z,25.53
2017-11-04T01:15:15.029Z,28.80
2017-11-04T01:17:43.900Z,25.80
2017-11-04T01:20:12.813Z,25.80
2017-11-04T01:22:40.949Z,22.73
2017-11-04T01:25:09.082Z,25.63
2017-11-04T01:27:37.226Z,24.47
2017-11-04T01:30:05.363Z,25.93
2017-11-04T01:32:33.478Z,26.23
2017-11-04T01:35:01.637Z,27.20
2017-11-04T01:37:29.803Z,25.47
2017-11-04T01:39:57.944Z,25.27
2017-11-04T01:42:26.086Z,25.80
2017-11-04T01:44:54.212Z,28.07
2017-11-04T01:47:23.104Z,28.20
2017-11-04T01:49:51.257Z,25.97
2017-11-04T01:52:19.406Z,27.57
2017-11-04T01:54:47.550Z,25.70
2017-11-04T01:57:15.725Z,24.30
2017-11-04T01:59:43.981Z,24.60
2017-11-04T02:02:14.015Z,23.20
2017-11-04T02:04:42.895Z,21.30
2017-11-04T02:07:11.032Z,21.23
2017-11-04T02:09:39.934Z,20.53
2017-11-04T02:12:08.076Z,21.43
2017-11-04T02:14:36.248Z,20.30
2017-11-04T02:17:04.386Z,21.97
2017-11-04T02:19:32.524Z,21.33
2017-11-04T02:22:01.412Z,24.73
2017-11-04T02:24:30.326Z,22.50
2017-11-04T02:26:58.460Z,22.30
2017-11-04T02:29:26.588Z,21.77
2017-11-04T02:31:54.709Z,23.03
2017-11-04T02:34:22.845Z,23.13
2017-11-04T02:36:51.757Z,27.37
2017-11-04T02:39:19.887Z,23.30
2017-11-04T02:41:48.008Z,25.70
2017-11-04T02:44:17.083Z,25.80
2017-11-04T02:46:45.208Z,23.73
2017-11-04T02:49:15.741Z,23.30
2017-11-04T02:51:43.895Z,26.77
2017-11-04T02:54:12.796Z,24.87
2017-11-04T02:56:42.134Z,27.53
2017-11-04T02:59:10.271Z,21.40
2017-11-04T03:01:38.413Z,21.63
2017-11-04T03:04:06.603Z,22.57
2017-11-04T03:06:34.739Z,22.60
2017-11-04T03:09:02.915Z,23.50
2017-11-04T03:11:31.197Z,26.50
2017-11-04T03:13:59.331Z,25.40
2017-11-04T03:16:27.473Z,23.90
2017-11-04T03:18:56.361Z,25.63
2017-11-04T03:21:25.272Z,25.77
2017-11-04T03:23:53.386Z,23.03
2017-11-04T03:26:21.522Z,22.43
2017-11-04T03:28:49.656Z,22.03
2017-11-04T03:31:18.572Z,23.63
2017-11-04T03:33:46.687Z,21.40
2017-11-04T03:36:15.773Z,23.63
2017-11-04T03:38:44.688Z,25.13
2017-11-04T03:41:12.817Z,25.83
2017-11-04T03:43:40.959Z,24.10
2017-11-04T03:46:09.852Z,26.33
2017-11-04T03:48:37.989Z,27.03
2017-11-04T03:51:06.120Z,26.40
2017-11-04T03:53:34.268Z,27.07
2017-11-04T03:56:02.388Z,26.40
2017-11-04T03:58:30.523Z,25.00
2017-11-04T04:00:59.424Z,26.27
2017-11-04T04:03:27.552Z,25.57
2017-11-04T04:05:56.440Z,25.37
2017-11-04T04:08:25.428Z,23.30
2017-11-04T04:10:53.564Z,26.20
2017-11-04T04:13:21.708Z,26.23
2017-11-04T04:15:50.656Z,26.03
2017-11-04T04:18:19.588Z,23.63
2017-11-04T04:20:48.492Z,24.27
2017-11-04T04:23:16.622Z,26.10
2017-11-04T04:25:44.788Z,24.30
2017-11-04T04:28:12.918Z,24.17
2017-11-04T04:30:41.060Z,23.27
2017-11-04T04:33:09.176Z,23.10
2017-11-04T04:35:37.311Z,21.70
2017-11-04T04:38:05.430Z,21.80
2017-11-04T04:40:33.589Z,24.33
2017-11-04T04:43:01.692Z,26.00
2017-11-04T04:45:29.817Z,24.90
2017-11-04T04:47:57.977Z,25.67
2017-11-04T04:50:26.106Z,24.77
2017-11-04T04:52:54.260Z,26.07
2017-11-04T04:55:22.380Z,27.00
2017-11-04T04:57:51.290Z,24.63
2017-11-04T05:00:19.434Z,26.10
2017-11-04T05:02:48.328Z,24.17
2017-11-04T05:05:17.237Z,23.83
2017-11-04T05:07:45.406Z,23.63
2017-11-04T05:10:14.332Z,21.73
2017-11-04T05:12:42.741Z,21.80
2017-11-04T05:15:10.907Z,21.13
2017-11-04T05:17:39.033Z,21.20
2017-11-04T05:20:07.210Z,20.83
2017-11-04T05:22:35.485Z,22.67
2017-11-04T05:25:03.616Z,20.63
2017-11-04T05:27:32.517Z,20.97
2017-11-04T05:30:01.432Z,23.57
2017-11-04T05:32:29.556Z,25.70
2017-11-04T05:34:57.702Z,24.63
2017-11-04T05:37:25.836Z,23.97
2017-11-04T05:39:53.977Z,23.43
2017-11-04T05:42:22.163Z,24.77
2017-11-04T05:44:50.285Z,23.07
2017-11-04T05:47:18.415Z,25.93
2017-11-04T05:49:47.352Z,23.03
2017-11-04T05:52:16.246Z,22.63
2017-11-04T05:54:44.379Z,23.10
2017-11-04T05:57:13.275Z,23.20
2017-11-04T05:59:41.417Z,20.10
2017-11-04T06:02:09.554Z,23.57
2017-11-04T06:04:37.695Z,21.20
2017-11-04T06:07:05.829Z,22.03
2017-11-04T06:09:33.991Z,20.87
2017-11-04T06:12:02.127Z,22.47
2017-11-04T06:14:30.257Z,23.10
2017-11-04T06:16:59.190Z,21.60
2017-11-04T06:19:27.319Z,22.97
2017-11-04T06:21:56.234Z,22.63
2017-11-04T06:24:24.473Z,25.97
2017-11-04T06:26:52.617Z,24.57
2017-11-04T06:29:20.745Z,25.20
2017-11-04T06:31:48.883Z,25.93
2017-11-04T06:34:17.021Z,25.93
2017-11-04T06:36:45.139Z,25.07
2017-11-04T06:39:14.044Z,25.97
2017-11-04T06:41:42.995Z,25.40
2017-11-04T06:44:11.902Z,26.17
2017-11-04T06:46:40.040Z,25.13
2017-11-04T06:49:08.171Z,21.77
2017-11-04T06:51:36.313Z,22.17
2017-11-04T06:54:04.452Z,22.77
2017-11-04T06:56:32.584Z,22.63
2017-11-04T06:59:01.493Z,20.83
2017-11-04T07:01:29.651Z,21.57
2017-11-04T07:03:58.590Z,23.37
2017-11-04T07:06:26.721Z,22.37
2017-11-04T07:08:55.821Z,24.07
2017-11-04T07:11:23.948Z,22.77
2017-11-04T07:13:52.092Z,22.97
2017-11-04T07:16:20.381Z,24.53
2017-11-04T07:18:48.516Z,24.07
2017-11-04T07:21:16.649Z,24.00
2017-11-04T07:23:44.818Z,22.50
2017-11-04T07:26:12.993Z,26.40
2017-11-04T07:28:41.920Z,24.17
2017-11-04T07:31:10.890Z,28.30
2017-11-04T07:33:39.033Z,21.57
2017-11-04T07:36:07.166Z,23.50
2017-11-04T07:38:36.061Z,27.17
2017-11-04T07:41:04.231Z,28.73
2017-11-04T07:43:32.382Z,27.67
2017-11-04T07:46:01.303Z,30.93
2017-11-04T07:48:29.430Z,33.07
2017-11-04T07:50:58.332Z,33.40
2017-11-04T07:53:27.238Z,34.23
2017-11-04T07:55:56.189Z,33.90
2017-11-04T07:58:25.971Z,29.40
2017-11-04T08:00:54.141Z,30.70
2017-11-04T08:03:22.275Z,32.80
2017-11-04T08:05:51.185Z,31.10
2017-11-04T08:08:19.331Z,31.27
2017-11-04T08:10:48.283Z,30.57
2017-11-04T08:13:16.437Z,28.13
2017-11-04T08:15:44.615Z,32.40
2017-11-04T08:18:12.777Z,32.23
2017-11-04T08:20:40.934Z,30.40
2017-11-04T08:23:09.073Z,32.57
2017-11-04T08:25:38.030Z,32.07
2017-11-04T08:28:06.218Z,32.80
2017-11-04T08:30:34.340Z,33.10
2017-11-04T08:33:02.598Z,32.23
2017-11-04T08:35:31.481Z,30.70
2017-11-04T08:38:00.383Z,26.20
2017-11-04T08:40:29.285Z,28.03
2017-11-04T08:42:58.209Z,26.03
2017-11-04T08:45:26.348Z,28.33
2017-11-04T08:47:54.489Z,27.13
2017-11-04T08:50:23.377Z,27.63
2017-11-04T08:52:51.545Z,26.63
2017-11-04T08:55:19.692Z,25.83
2017-11-04T08:57:48.648Z,25.27
2017-11-04T09:00:16.789Z,27.07
2017-11-04T09:02:44.928Z,26.67
2017-11-04T09:05:15.194Z,28.40
2017-11-04T09:07:44.106Z,26.97
2017-11-04T09:10:12.240Z,27.60
2017-11-04T09:12:41.713Z,27.43
2017-11-04T09:15:10.179Z,26.70
2017-11-04T09:17:38.310Z,26.03
2017-11-04T09:20:07.214Z,27.47
2017-11-04T09:22:36.214Z,26.80
2017-11-04T09:25:05.104Z,27.87
2017-11-04T09:27:34.012Z,27.20
2017-11-04T09:30:03.339Z,29.90
2017-11-04T09:32:31.475Z,29.93
2017-11-04T09:35:00.563Z,28.10
2017-11-04T09:37:28.719Z,26.73
2017-11-04T09:39:58.245Z,28.77
2017-11-04T09:42:26.461Z,29.20
2017-11-04T09:44:55.192Z,28.70
2017-11-04T09:47:24.116Z,30.20
2017-11-04T09:49:52.248Z,27.30
2017-11-04T09:52:21.170Z,27.20
2017-11-04T09:54:49.304Z,32.33
2017-11-04T09:57:17.452Z,36.20
2017-11-04T09:59:45.626Z,32.80
2017-11-04T10:02:13.837Z,29.73
2017-11-04T10:04:42.469Z,28.40
2017-11-04T10:07:12.141Z,27.17
2017-11-04T10:09:41.085Z,25.10
2017-11-04T10:12:09.249Z,28.20
2017-11-04T10:14:37.409Z,24.90
2017-11-04T10:17:06.335Z,27.93
2017-11-04T10:19:34.487Z,29.50
2017-11-04T10:22:03.429Z,28.70
2017-11-04T10:24:31.552Z,27.00
2017-11-04T10:26:59.797Z,28.30
2017-11-04T10:29:28.713Z,27.33
2017-11-04T10:31:56.857Z,27.00
2017-11-04T10:34:25.013Z,27.87
2017-11-04T10:36:53.916Z,27.23
2017-11-04T10:39:22.089Z,26.67
2017-11-04T10:41:51.016Z,26.50
2017-11-04T10:44:19.171Z,25.63
2017-11-04T10:46:48.236Z,26.13
2017-11-04T10:49:17.149Z,27.27
2017-11-04T10:51:45.339Z,27.20
2017-11-04T10:54:14.160Z,24.83
2017-11-04T10:56:43.026Z,26.20
2017-11-04T10:59:11.161Z,24.67
2017-11-04T11:01:41.153Z,26.40
2017-11-04T11:04:09.275Z,24.90
2017-11-04T11:06:38.353Z,26.40
2017-11-04T11:09:06.506Z,23.83
2017-11-04T11:11:37.281Z,24.67
2017-11-04T11:14:05.415Z,26.70
2017-11-04T11:16:35.346Z,25.70
2017-11-04T11:19:04.254Z,22.67
2017-11-04T11:21:32.406Z,24.63
2017-11-04T11:24:01.368Z,23.60
2017-11-04T11:26:29.535Z,23.13
2017-11-04T11:28:57.673Z,24.47
2017-11-04T11:31:25.869Z,24.87
2017-11-04T11:33:54.001Z,24.73
2017-11-04T11:36:22.136Z,25.30
2017-11-04T11:38:50.323Z,24.90
2017-11-04T11:41:19.237Z,26.03
2017-11-04T11:43:47.402Z,25.37
2017-11-04T11:46:15.537Z,24.10
2017-11-04T11:48:43.708Z,24.80
2017-11-04T11:51:11.846Z,23.50
2017-11-04T11:53:39.987Z,23.80
2017-11-04T11:56:08.910Z,24.50
2017-11-04T11:58:37.796Z,24.10
2017-11-04T12:01:05.953Z,25.30
2017-11-04T12:03:34.086Z,24.57
2017-11-04T12:06:02.257Z,22.13
2017-11-04T12:08:30.417Z,22.40
2017-11-04T12:10:58.569Z,21.33
2017-11-04T12:13:26.714Z,21.37
2017-11-04T12:15:55.638Z,21.23
2017-11-04T12:18:23.795Z,21.70
2017-11-04T12:20:51.937Z,22.03
2017-11-04T12:23:20.086Z,22.43
2017-11-04T12:25:48.234Z,20.37
2017-11-04T12:28:17.281Z,22.60
2017-11-04T12:30:45.411Z,20.73
2017-11-04T12:33:13.578Z,20.87
2017-11-04T12:35:41.772Z,21.00
2017-11-04T12:38:11.093Z,21.43
2017-11-04T12:40:39.243Z,22.50
2017-11-04T12:43:07.396Z,22.33
2017-11-04T12:45:35.541Z,20.90
2017-11-04T12:48:05.418Z,21.90
2017-11-04T12:50:33.544Z,21.03
2017-11-04T12:53:02.549Z,21.80
2017-11-04T12:55:30.740Z,22.40
2017-11-04T12:57:58.905Z,23.83
2017-11-04T13:00:27.053Z,22.83
2017-11-04T13:02:55.985Z,20.27
2017-11-04T13:05:24.152Z,21.07
2017-11-04T13:07:53.067Z,20.47
2017-11-04T13:10:21.212Z,22.03
2017-11-04T13:12:49.341Z,23.93
2017-11-04T13:15:17.489Z,24.50
2017-11-04T13:17:45.916Z,23.50
2017-11-04T13:20:14.057Z,22.30
2017-11-04T13:22:42.985Z,21.77
2017-11-04T13:25:11.337Z,21.57
2017-11-04T13:27:41.236Z,21.80
2017-11-04T13:30:09.395Z,19.83
2017-11-04T13:32:37.522Z,20.80
2017-11-04T13:35:05.689Z,21.10
2017-11-04T13:37:33.839Z,20.83
2017-11-04T13:40:02.020Z,19.47
2017-11-04T13:42:30.930Z,19.20
2017-11-04T13:44:59.854Z,19.93
2017-11-04T13:47:27.994Z,22.20
2017-11-04T13:49:58.234Z,20.60
2017-11-04T13:52:29.564Z,22.27
2017-11-04T13:54:57.765Z,20.40
2017-11-04T13:57:27.569Z,19.60
2017-11-04T13:59:55.712Z,19.70
2017-11-04T14:02:23.857Z,18.07
2017-11-04T14:04:52.753Z,21.40
2017-11-04T14:07:20.901Z,18.17
2017-11-04T14:09:49.052Z,19.10
2017-11-04T14:12:17.207Z,20.07
2017-11-04T14:14:45.580Z,19.17
2017-11-04T14:17:14.513Z,17.83
2017-11-04T14:19:42.667Z,18.00
2017-11-04T14:22:10.845Z,17.50
2017-11-04T14:24:39.179Z,16.93
2017-11-04T14:27:08.091Z,16.83
2017-11-04T14:29:36.259Z,15.67
2017-11-04T14:32:04.410Z,16.03
2017-11-04T14:34:32.557Z,15.00
2017-11-04T14:37:01.674Z,14.70
2017-11-04T14:39:30.594Z,14.90
2017-11-04T14:41:58.755Z,17.07
2017-11-04T14:44:27.673Z,16.07
2017-11-04T14:46:56.644Z,14.83
2017-11-04T14:49:24.790Z,14.40
2017-11-04T14:51:53.712Z,14.50
2017-11-04T14:54:21.862Z,14.63
2017-11-04T14:56:50.802Z,15.37
2017-11-04T14:59:18.998Z,16.10
2017-11-04T15:01:47.117Z,16.50
2017-11-04T15:04:16.039Z,16.37
2017-11-04T15:06:44.193Z,18.50
2017-11-04T15:09:13.149Z,18.17
2017-11-04T15:11:41.286Z,17.00
2017-11-04T15:14:09.427Z,17.53
2017-11-04T15:16:37.604Z,17.47
2017-11-04T15:19:05.767Z,17.40
2017-11-04T15:21:34.687Z,16.10
2017-11-04T15:24:04.508Z,18.80
2017-11-04T15:26:32.650Z,17.50
2017-11-04T15:29:00.804Z,17.10
2017-11-04T15:31:28.948Z,18.17
2017-11-04T15:33:57.090Z,18.30
2017-11-04T15:36:25.237Z,17.77
2017-11-04T15:38:53.399Z,19.27
2017-11-04T15:41:23.490Z,19.73
2017-11-04T15:43:52.330Z,20.03
2017-11-04T15:46:20.461Z,19.63
2017-11-04T15:48:48.664Z,21.67
2017-11-04T15:51:16.970Z,20.07
2017-11-04T15:53:45.132Z,22.03
2017-11-04T15:56:13.280Z,22.07
2017-11-04T15:58:42.194Z,27.47
2017-11-04T16:01:10.358Z,25.33
2017-11-04T16:03:38.515Z,24.83
2017-11-04T16:06:06.712Z,22.00
2017-11-04T16:08:35.772Z,22.50
2017-11-04T16:11:05.029Z,21.23
2017-11-04T16:13:33.160Z,19.87
2017-11-04T16:16:02.080Z,19.57
2017-11-04T16:18:30.260Z,20.00
2017-11-04T16:20:58.394Z,18.23
2017-11-04T16:23:26.573Z,18.70
2017-11-04T16:25:54.716Z,20.20
2017-11-04T16:28:22.896Z,20.70
2017-11-04T16:30:51.038Z,21.03
2017-11-04T16:33:19.192Z,22.77
2017-11-04T16:35:47.332Z,21.60
2017-11-04T16:38:16.250Z,21.47
2017-11-04T16:40:44.408Z,21.53
2017-11-04T16:43:12.525Z,21.20
2017-11-04T16:45:40.690Z,22.27
2017-11-04T16:48:09.593Z,21.10
2017-11-04T16:50:38.499Z,22.60
2017-11-04T16:53:06.639Z,20.20
2017-11-04T16:55:34.779Z,22.53
2017-11-04T16:58:02.927Z,24.10
2017-11-04T17:00:31.936Z,20.27
2017-11-04T17:03:00.186Z,21.40
2017-11-04T17:05:28.377Z,26.87
2017-11-04T17:07:57.304Z,38.57
2017-11-04T17:10:26.225Z,32.67
2017-11-04T17:12:54.499Z,29.37
2017-11-04T17:15:22.657Z,32.13
2017-11-04T17:17:50.817Z,25.80
2017-11-04T17:20:18.973Z,24.57
2017-11-04T17:22:47.109Z,27.03
2017-11-04T17:25:16.036Z,27.00
2017-11-04T17:27:44.178Z,27.10
2017-11-04T17:30:13.106Z,24.67
2017-11-04T17:32:41.244Z,26.00
2017-11-04T17:35:09.400Z,24.03
2017-11-04T17:37:37.554Z,37.77
2017-11-04T17:40:05.729Z,41.23
2017-11-04T17:42:33.864Z,39.73
2017-11-04T17:45:03.222Z,35.27
2017-11-04T17:47:31.478Z,28.97
2017-11-04T17:49:59.612Z,29.57
2017-11-04T17:52:27.782Z,34.70
2017-11-04T17:54:55.921Z,29.43
2017-11-04T17:57:24.824Z,28.10
2017-11-04T17:59:53.759Z,25.10
2017-11-04T18:02:21.906Z,25.77
2017-11-04T18:04:50.066Z,25.43
2017-11-04T18:07:18.974Z,26.47
2017-11-04T18:09:47.159Z,26.60
2017-11-04T18:12:15.325Z,25.23
2017-11-04T18:14:43.498Z,25.47
2017-11-04T18:17:11.645Z,25.03
2017-11-04T18:19:40.586Z,25.80
2017-11-04T18:22:08.728Z,22.50
2017-11-04T18:24:36.908Z,23.27
2017-11-04T18:27:05.035Z,22.70
2017-11-04T18:29:33.213Z,22.73
2017-11-04T18:32:01.379Z,21.97
2017-11-04T18:34:29.521Z,22.30
2017-11-04T18:36:57.688Z,23.80
2017-11-04T18:39:25.916Z,22.80
2017-11-04T18:41:54.073Z,24.60
2017-11-04T18:44:22.216Z,23.00
2017-11-04T18:46:50.385Z,23.60
2017-11-04T18:49:18.550Z,23.67
2017-11-04T18:51:46.701Z,24.13
2017-11-04T18:54:14.844Z,23.83
2017-11-04T18:56:43.742Z,22.83
2017-11-04T18:59:11.957Z,22.63
2017-11-04T19:01:40.141Z,26.17
2017-11-04T19:04:08.299Z,26.90
2017-11-04T19:06:36.451Z,27.40
2017-11-04T19:09:05.496Z,28.27
2017-11-04T19:11:33.644Z,22.67
2017-11-04T19:14:01.802Z,19.03
2017-11-04T19:16:29.959Z,18.47
2017-11-04T19:18:58.103Z,16.67
2017-11-04T19:21:27.764Z,21.07
2017-11-04T19:23:56.004Z,18.27
2017-11-04T19:26:24.162Z,23.23
2017-11-04T19:28:52.331Z,22.97
2017-11-04T19:31:20.500Z,21.77
2017-11-04T19:33:48.650Z,23.67
2017-11-04T19:36:16.809Z,23.70
2017-11-04T19:38:44.956Z,20.30
2017-11-04T19:41:13.882Z,22.90
2017-11-04T19:43:42.106Z,23.73
2017-11-04T19:52:48.214Z,23.40
2017-11-04T19:55:29.160Z,21.87
2017-11-04T19:58:08.095Z,20.77
2017-11-04T20:00:41.510Z,21.20
2017-11-04T20:03:10.813Z,25.03
2017-11-04T20:05:40.014Z,22.40
2017-11-04T20:08:08.957Z,20.90
2017-11-04T20:10:37.136Z,20.50
2017-11-04T20:13:05.323Z,18.00
2017-11-04T20:15:33.474Z,16.80
2017-11-04T20:18:01.620Z,16.43
2017-11-04T20:20:30.714Z,17.70
2017-11-04T20:23:02.486Z,14.60
2017-11-04T20:25:30.819Z,17.80
2017-11-04T20:27:59.611Z,16.80
2017-11-04T20:30:28.545Z,18.77
2017-11-04T20:32:57.541Z,17.20
2017-11-04T20:35:25.765Z,18.60
2017-11-04T20:37:57.274Z,16.93
2017-11-04T20:40:25.499Z,16.07
2017-11-04T20:42:54.432Z,15.80
2017-11-04T20:45:22.660Z,18.00
2017-11-04T20:47:51.598Z,15.93
2017-11-04T20:50:20.472Z,15.13
2017-11-04T20:52:49.723Z,14.93
2017-11-04T20:55:17.876Z,19.50
2017-11-04T20:57:46.057Z,16.40
2017-11-04T21:00:14.232Z,15.60
2017-11-04T21:02:44.176Z,16.03
2017-11-04T21:05:12.344Z,20.13
2017-11-04T21:07:40.481Z,19.63
2017-11-04T21:10:08.661Z,17.63
2017-11-04T21:12:38.416Z,18.40
2017-11-04T21:15:06.610Z,18.43
2017-11-04T21:17:34.797Z,19.33
2017-11-04T21:20:03.736Z,17.27
2017-11-04T21:22:31.946Z,20.40
2017-11-04T21:25:00.104Z,16.63
2017-11-04T21:27:30.174Z,12.70
2017-11-04T21:29:58.319Z,12.43
2017-11-04T21:32:26.462Z,10.53
2017-11-04T21:34:54.623Z,10.50
2017-11-04T21:37:22.778Z,11.63
2017-11-04T21:39:50.948Z,14.60
2017-11-04T21:42:19.176Z,14.30
2017-11-04T21:44:47.322Z,13.20
2017-11-04T21:47:15.476Z,12.93
2017-11-04T21:49:43.630Z,15.10
2017-11-04T21:52:11.776Z,20.27
2017-11-04T21:54:39.931Z,25.93
2017-11-04T21:57:08.106Z,28.60
2017-11-04T21:59:36.352Z,34.97
2017-11-04T22:02:04.583Z,33.73
2017-11-04T22:04:32.736Z,36.20
2017-11-04T22:07:01.257Z,33.90
2017-11-04T22:09:29.387Z,31.20
2017-11-04T22:11:57.589Z,30.93
2017-11-04T22:14:25.738Z,31.97
2017-11-04T22:16:53.944Z,27.80
2017-11-04T22:19:23.003Z,25.53
2017-11-04T22:21:51.759Z,23.67
2017-11-04T22:24:19.909Z,22.10
2017-11-04T22:26:48.101Z,20.90
2017-11-04T22:29:17.047Z,19.70
2017-11-04T22:31:45.215Z,19.60
2017-11-04T22:34:14.167Z,20.23
2017-11-04T22:36:42.318Z,24.17
2017-11-04T22:39:10.464Z,21.80
2017-11-04T22:41:38.612Z,22.90
2017-11-04T22:44:08.006Z,23.37
2017-11-04T22:46:36.137Z,23.30
2017-11-04T22:49:04.301Z,24.50
2017-11-04T22:51:32.451Z,21.33
2017-11-04T22:54:01.144Z,22.20
2017-11-04T22:56:29.289Z,21.70
2017-11-04T22:58:58.214Z,22.97
2017-11-04T23:01:26.383Z,24.40
2017-11-04T23:03:54.540Z,21.83
2017-11-04T23:06:22.691Z,23.03
2017-11-04T23:08:51.620Z,23.07
2017-11-04T23:11:19.776Z,22.80
2017-11-04T23:13:47.920Z,24.67
2017-11-04T23:16:16.820Z,31.57
2017-11-04T23:18:44.998Z,30.80
2017-11-04T23:21:13.899Z,25.07
2017-11-04T23:23:42.045Z,28.30
2017-11-04T23:26:10.973Z,26.40
2017-11-04T23:28:39.079Z,28.80
2017-11-04T23:31:07.172Z,28.67
2017-11-04T23:33:36.040Z,26.87
2017-11-04T23:36:04.183Z,28.90
2017-11-04T23:38:32.315Z,27.23
2017-11-04T23:41:02.532Z,27.03
2017-11-04T23:43:33.585Z,24.00
2017-11-04T23:46:03.156Z,21.67
2017-11-04T23:48:33.181Z,20.97
2017-11-04T23:51:02.071Z,23.23
2017-11-04T23:53:30.977Z,21.30
2017-11-04T23:55:59.799Z,20.83
2017-11-04T23:58:28.521Z,21.67
